createdAt,value
2018-12-11T00:00:34.788Z,2.33
2018-12-11T00:03:03.257Z,2.80
2018-12-11T00:05:31.871Z,2.10
2018-12-11T00:08:00.414Z,2.57
2018-12-11T00:10:28.946Z,3.37
2018-12-11T00:12:57.473Z,2.90
2018-12-11T00:15:26.495Z,2.07
2018-12-11T00:17:56.070Z,2.20
2018-12-11T00:20:24.573Z,3.00
2018-12-11T00:22:53.179Z,1.50
2018-12-11T00:25:22.433Z,3.70
2018-12-11T00:27:52.445Z,2.80
2018-12-11T00:30:21.512Z,2.43
2018-12-11T00:32:50.750Z,1.70
2018-12-11T00:35:20.272Z,2.20
2018-12-11T00:37:48.760Z,2.33
2018-12-11T00:40:17.393Z,2.70
2018-12-11T00:42:45.901Z,3.90
2018-12-11T00:45:14.421Z,1.72
2018-12-11T00:47:42.936Z,2.23
2018-12-11T00:50:11.501Z,1.63
2018-12-11T00:52:40.047Z,2.50
2018-12-11T00:55:09.581Z,2.33
2018-12-11T00:57:39.456Z,2.83
2018-12-11T01:00:09.253Z,2.15
2018-12-11T01:02:37.944Z,2.20
2018-12-11T01:05:06.654Z,1.47
2018-12-11T01:07:35.407Z,1.97
2018-12-11T01:10:08.132Z,2.37
2018-12-11T01:12:36.660Z,2.80
2018-12-11T01:15:06.498Z,2.70
2018-12-11T01:17:35.056Z,2.03
2018-12-11T01:20:04.647Z,1.93
2018-12-11T01:22:33.170Z,2.43
2018-12-11T01:25:02.380Z,2.10
2018-12-11T01:27:31.661Z,2.10
2018-12-11T01:30:00.165Z,1.50
2018-12-11T01:32:28.849Z,2.47
2018-12-11T01:34:57.357Z,1.50
2018-12-11T01:37:25.849Z,1.90
2018-12-11T01:39:54.991Z,1.93
2018-12-11T01:42:23.501Z,1.77
2018-12-11T01:44:52.113Z,1.83
2018-12-11T01:47:20.671Z,1.83
2018-12-11T01:49:49.513Z,1.70
2018-12-11T01:52:18.018Z,1.30
2018-12-11T01:54:46.558Z,1.77
2018-12-11T01:57:16.325Z,1.37
2018-12-11T01:59:46.102Z,1.97
2018-12-11T02:02:14.812Z,0.97
2018-12-11T02:04:43.352Z,1.30
2018-12-11T02:07:11.924Z,2.30
2018-12-11T02:09:40.509Z,0.80
2018-12-11T02:12:09.033Z,1.43
2018-12-11T02:14:37.789Z,0.90
2018-12-11T02:17:07.628Z,1.53
2018-12-11T02:19:36.199Z,1.87
2018-12-11T02:22:05.214Z,2.00
2018-12-11T02:24:33.693Z,1.40
2018-12-11T02:27:02.188Z,1.33
2018-12-11T02:29:30.771Z,1.37
2018-12-11T02:31:59.492Z,1.70
2018-12-11T02:34:28.033Z,1.73
2018-12-11T02:36:57.211Z,1.57
2018-12-11T02:39:26.004Z,1.40
2018-12-11T02:41:54.607Z,1.63
2018-12-11T02:44:23.682Z,1.43
2018-12-11T02:46:52.249Z,2.13
2018-12-11T02:49:20.813Z,1.33
2018-12-11T02:51:49.432Z,1.80
2018-12-11T02:54:17.940Z,1.70
2018-12-11T02:56:46.572Z,1.77
2018-12-11T02:59:15.097Z,1.00
2018-12-11T03:01:44.448Z,1.60
2018-12-11T03:04:12.975Z,1.03
2018-12-11T03:06:41.624Z,1.47
2018-12-11T03:09:10.122Z,1.30
2018-12-11T03:11:38.658Z,1.27
2018-12-11T03:14:07.368Z,2.00
2018-12-11T03:16:35.861Z,1.00
2018-12-11T03:19:04.450Z,1.20
2018-12-11T03:21:32.960Z,1.40
2018-12-11T03:24:01.481Z,1.50
2018-12-11T03:26:30.878Z,1.30
2018-12-11T03:28:59.407Z,1.83
2018-12-11T03:31:28.916Z,2.10
2018-12-11T03:33:57.425Z,1.30
2018-12-11T03:36:26.222Z,1.30
2018-12-11T03:38:54.915Z,1.63
2018-12-11T03:41:24.303Z,1.35
2018-12-11T03:43:53.994Z,3.03
2018-12-11T03:46:22.528Z,1.53
2018-12-11T03:48:51.842Z,1.60
2018-12-11T03:51:20.952Z,2.00
2018-12-11T03:53:50.346Z,2.33
2018-12-11T03:56:19.558Z,1.33
2018-12-11T03:58:48.248Z,0.93
2018-12-11T04:01:16.786Z,1.30
2018-12-11T04:03:45.391Z,1.67
2018-12-11T04:06:13.924Z,1.97
2018-12-11T04:08:42.421Z,1.53
2018-12-11T04:11:12.239Z,1.77
2018-12-11T04:13:41.224Z,1.90
2018-12-11T04:16:09.770Z,1.57
2018-12-11T04:18:39.439Z,1.00
2018-12-11T04:21:07.962Z,1.20
2018-12-11T04:23:37.169Z,1.80
2018-12-11T04:26:05.674Z,1.40
2018-12-11T04:28:34.321Z,1.40
2018-12-11T04:31:03.658Z,1.77
2018-12-11T04:33:32.167Z,1.10
2018-12-11T04:36:01.564Z,1.40
2018-12-11T04:38:30.318Z,1.20
2018-12-11T04:40:59.670Z,1.40
2018-12-11T04:43:28.197Z,1.30
2018-12-11T04:45:58.286Z,1.33
2018-12-11T04:48:27.046Z,1.67
2018-12-11T04:50:55.654Z,1.47
2018-12-11T04:53:24.834Z,1.87
2018-12-11T04:55:54.046Z,1.70
2018-12-11T04:58:24.131Z,1.40
2018-12-11T05:00:52.663Z,1.17
2018-12-11T05:03:21.332Z,1.30
2018-12-11T05:05:49.868Z,1.60
2018-12-11T05:08:19.206Z,1.40
2018-12-11T05:10:50.666Z,1.63
2018-12-11T05:13:19.180Z,4.03
2018-12-11T05:15:47.789Z,1.40
2018-12-11T05:18:16.356Z,2.17
2018-12-11T05:20:44.828Z,2.00
2018-12-11T05:23:14.211Z,1.47
2018-12-11T05:25:42.705Z,1.40
2018-12-11T05:28:11.918Z,1.73
2018-12-11T05:30:41.022Z,2.53
2018-12-11T05:33:10.062Z,1.57
2018-12-11T05:35:38.576Z,1.60
2018-12-11T05:38:07.140Z,1.73
2018-12-11T05:40:35.760Z,0.90
2018-12-11T05:43:04.361Z,3.00
2018-12-11T05:45:32.906Z,2.70
2018-12-11T05:48:01.414Z,1.80
2018-12-11T05:50:31.302Z,1.50
2018-12-11T05:52:59.883Z,1.57
2018-12-11T05:55:28.365Z,1.43
2018-12-11T05:57:57.025Z,1.40
2018-12-11T06:00:25.641Z,1.77
2018-12-11T06:02:54.218Z,1.83
2018-12-11T06:05:22.780Z,1.13
2018-12-11T06:07:51.301Z,1.10
2018-12-11T06:10:19.875Z,1.50
2018-12-11T06:12:48.424Z,1.03
2018-12-11T06:15:17.896Z,1.40
2018-12-11T06:17:46.477Z,1.30
2018-12-11T06:20:15.032Z,0.93
2018-12-11T06:22:44.134Z,2.50
2018-12-11T06:25:12.691Z,1.50
2018-12-11T06:27:41.181Z,1.17
2018-12-11T06:30:10.658Z,1.80
2018-12-11T06:32:39.452Z,1.23
2018-12-11T06:35:08.463Z,1.20
2018-12-11T06:37:37.113Z,1.80
2018-12-11T06:40:06.374Z,1.57
2018-12-11T06:42:35.104Z,1.83
2018-12-11T06:45:04.469Z,1.80
2018-12-11T06:47:32.996Z,1.93
2018-12-11T06:50:01.504Z,1.63
2018-12-11T06:52:30.202Z,3.87
2018-12-11T06:55:01.163Z,1.67
2018-12-11T06:57:29.709Z,1.60
2018-12-11T06:59:58.195Z,3.33
2018-12-11T07:02:26.736Z,2.27
2018-12-11T07:04:55.266Z,1.80
2018-12-11T07:07:23.785Z,1.40
2018-12-11T07:09:56.305Z,2.33
2018-12-11T07:12:24.865Z,2.03
2018-12-11T07:14:53.541Z,1.77
2018-12-11T07:17:22.048Z,1.60
2018-12-11T07:19:50.597Z,1.57
2018-12-11T07:22:19.249Z,1.93
2018-12-11T07:24:48.702Z,1.80
2018-12-11T07:27:19.164Z,1.60
2018-12-11T07:29:47.668Z,2.37
2018-12-11T07:32:16.189Z,1.70
2018-12-11T07:34:44.722Z,2.40
2018-12-11T07:37:13.982Z,2.33
2018-12-11T07:39:42.513Z,2.03
2018-12-11T07:42:11.004Z,1.53
2018-12-11T07:44:40.148Z,1.83
2018-12-11T07:47:08.846Z,1.53
2018-12-11T07:49:37.372Z,1.40
2018-12-11T07:52:05.895Z,2.00
2018-12-11T07:54:34.463Z,1.40
2018-12-11T07:57:03.588Z,2.00
2018-12-11T07:59:33.492Z,2.50
2018-12-11T08:02:02.652Z,2.50
2018-12-11T08:04:31.162Z,1.83
2018-12-11T08:06:59.840Z,2.07
2018-12-11T08:09:28.599Z,1.77
2018-12-11T08:11:57.121Z,1.30
2018-12-11T08:14:26.221Z,3.20
2018-12-11T08:16:54.785Z,3.13
2018-12-11T08:19:24.333Z,2.30
2018-12-11T08:21:52.810Z,1.73
2018-12-11T08:24:21.307Z,2.13
2018-12-11T08:26:49.831Z,2.00
2018-12-11T08:29:18.442Z,1.60
2018-12-11T08:31:46.990Z,2.40
2018-12-11T08:34:16.101Z,1.73
2018-12-11T08:36:44.849Z,1.87
2018-12-11T08:39:13.434Z,1.77
2018-12-11T08:41:41.996Z,1.47
2018-12-11T08:44:11.041Z,2.00
2018-12-11T08:46:39.641Z,2.00
2018-12-11T08:49:08.375Z,1.93
2018-12-11T08:51:36.936Z,1.63
2018-12-11T08:54:05.658Z,1.73
2018-12-11T08:56:35.066Z,1.77
2018-12-11T08:59:06.530Z,3.00
2018-12-11T09:01:35.144Z,2.20
2018-12-11T09:04:03.713Z,2.37
2018-12-11T09:06:32.254Z,1.92
2018-12-11T09:09:01.531Z,2.77
2018-12-11T09:11:30.076Z,2.10
2018-12-11T09:13:59.640Z,2.10
2018-12-11T09:16:29.084Z,1.70
2018-12-11T09:18:58.176Z,1.90
2018-12-11T09:21:27.357Z,2.50
2018-12-11T09:23:56.973Z,2.10
2018-12-11T09:26:25.592Z,1.60
2018-12-11T09:28:54.088Z,1.87
2018-12-11T09:31:22.577Z,1.50
2018-12-11T09:33:51.916Z,3.20
2018-12-11T09:36:20.424Z,1.90
2018-12-11T09:38:49.045Z,1.50
2018-12-11T09:41:18.222Z,1.53
2018-12-11T09:43:46.914Z,1.63
2018-12-11T09:46:15.409Z,2.77
2018-12-11T09:48:43.977Z,2.30
2018-12-11T09:51:17.726Z,1.53
2018-12-11T09:53:43.392Z,1.67
2018-12-11T09:56:11.956Z,1.50
2018-12-11T09:58:40.476Z,2.20
2018-12-11T10:01:08.994Z,1.67
2018-12-11T10:03:37.630Z,1.97
2018-12-11T10:06:06.177Z,2.00
2018-12-11T10:08:35.349Z,1.70
2018-12-11T10:11:03.898Z,2.53
2018-12-11T10:13:32.508Z,2.10
2018-12-11T10:16:01.085Z,2.10
2018-12-11T10:18:29.712Z,2.10
2018-12-11T10:20:58.277Z,2.87
2018-12-11T10:23:31.822Z,1.60
2018-12-11T10:25:57.550Z,2.50
2018-12-11T10:28:26.206Z,2.20
2018-12-11T10:30:54.718Z,1.57
2018-12-11T10:33:23.262Z,1.40
2018-12-11T10:35:51.862Z,2.00
2018-12-11T10:38:20.361Z,2.60
2018-12-11T10:40:48.849Z,1.90
2018-12-11T10:43:18.077Z,2.10
2018-12-11T10:45:46.597Z,2.53
2018-12-11T10:48:15.184Z,3.33
2018-12-11T10:50:43.720Z,2.77
2018-12-11T10:53:12.365Z,2.57
2018-12-11T10:55:48.291Z,2.63
2018-12-11T10:58:17.451Z,3.33
2018-12-11T11:00:50.295Z,1.80
2018-12-11T11:03:18.864Z,2.37
2018-12-11T11:05:47.477Z,1.93
2018-12-11T11:08:17.462Z,2.20
2018-12-11T11:10:45.976Z,2.23
2018-12-11T11:13:14.545Z,1.73
2018-12-11T11:15:44.417Z,2.57
2018-12-11T11:18:13.610Z,2.13
2018-12-11T11:20:42.105Z,1.70
2018-12-11T11:23:10.680Z,1.70
2018-12-11T11:25:39.302Z,2.67
2018-12-11T11:28:07.857Z,1.90
2018-12-11T11:30:37.282Z,1.90
2018-12-11T11:33:05.834Z,2.17
2018-12-11T11:35:34.346Z,2.27
2018-12-11T11:38:02.985Z,2.23
2018-12-11T11:40:31.571Z,2.63
2018-12-11T11:43:00.122Z,1.73
2018-12-11T11:45:28.623Z,2.13
2018-12-11T11:47:57.179Z,1.30
2018-12-11T11:50:26.651Z,2.27
2018-12-11T11:52:55.916Z,2.57
2018-12-11T11:55:24.430Z,2.53
2018-12-11T11:57:53.041Z,2.37
2018-12-11T12:00:21.572Z,2.40
2018-12-11T12:02:50.094Z,2.70
2018-12-11T12:05:18.685Z,1.27
2018-12-11T12:07:47.254Z,1.60
2018-12-11T12:12:55.638Z,2.23
2018-12-11T12:15:25.116Z,3.57
2018-12-11T12:17:53.742Z,3.40
2018-12-11T12:20:22.294Z,2.58
2018-12-11T12:22:50.916Z,6.03
2018-12-11T12:25:19.465Z,4.03
2018-12-11T12:27:48.104Z,1.83
2018-12-11T12:30:16.728Z,2.40
2018-12-11T12:32:45.231Z,3.83
2018-12-11T12:35:14.435Z,3.20
2018-12-11T12:37:43.161Z,2.93
2018-12-11T12:40:11.735Z,2.63
2018-12-11T12:42:40.210Z,2.50
2018-12-11T12:45:08.939Z,1.30
2018-12-11T12:47:38.265Z,3.50
2018-12-11T12:50:07.991Z,3.07
2018-12-11T12:52:36.666Z,5.43
2018-12-11T12:55:05.779Z,2.63
2018-12-11T12:57:35.408Z,3.43
2018-12-11T13:00:04.369Z,3.20
2018-12-11T13:02:32.858Z,3.53
2018-12-11T13:05:01.549Z,2.10
2018-12-11T13:07:30.034Z,1.73
2018-12-11T13:09:59.523Z,4.73
2018-12-11T13:12:28.437Z,2.50
2018-12-11T13:14:56.944Z,3.30
2018-12-11T13:17:26.269Z,3.40
2018-12-11T13:19:54.854Z,2.60
2018-12-11T13:22:23.882Z,2.15
2018-12-11T13:24:52.438Z,1.97
2018-12-11T13:27:21.053Z,2.10
2018-12-11T13:29:49.638Z,2.73
2018-12-11T13:32:18.181Z,2.50
2018-12-11T13:34:47.641Z,2.50
2018-12-11T13:37:16.293Z,2.67
2018-12-11T13:39:44.849Z,2.00
2018-12-11T13:42:13.575Z,4.57
2018-12-11T13:44:42.162Z,2.77
2018-12-11T13:47:11.111Z,2.63
2018-12-11T13:49:40.239Z,3.73
2018-12-11T13:52:09.384Z,2.30
2018-12-11T13:54:38.136Z,2.20
2018-12-11T13:57:06.787Z,2.47
2018-12-11T13:59:35.316Z,1.90
2018-12-11T14:02:03.860Z,2.10
2018-12-11T14:04:32.338Z,2.93
2018-12-11T14:07:00.838Z,1.63
2018-12-11T14:09:34.920Z,2.30
2018-12-11T14:12:04.089Z,2.03
2018-12-11T14:14:32.650Z,2.23
2018-12-11T14:17:01.354Z,1.90
2018-12-11T14:19:29.853Z,1.63
2018-12-11T14:21:58.426Z,2.23
2018-12-11T14:24:27.205Z,3.10
2018-12-11T14:26:56.284Z,7.47
2018-12-11T14:29:25.315Z,5.40
2018-12-11T14:31:54.945Z,20.73
2018-12-11T14:34:23.962Z,7.40
2018-12-11T14:36:52.597Z,2.97
2018-12-11T14:39:21.181Z,3.20
2018-12-11T14:41:49.771Z,2.20
2018-12-11T14:44:18.306Z,1.90
2018-12-11T14:46:46.826Z,1.90
2018-12-11T14:49:15.451Z,1.70
2018-12-11T14:51:43.980Z,1.93
2018-12-11T14:54:12.521Z,1.80
2018-12-11T14:56:41.210Z,2.20
2018-12-11T14:59:09.721Z,1.87
2018-12-11T15:01:38.283Z,2.40
2018-12-11T15:04:06.842Z,2.20
2018-12-11T15:06:35.646Z,2.47
2018-12-11T15:09:11.737Z,2.07
2018-12-11T15:11:40.318Z,1.50
2018-12-11T15:14:08.862Z,2.17
2018-12-11T15:16:37.721Z,2.57
2018-12-11T15:19:06.290Z,2.20
2018-12-11T15:21:34.830Z,2.30
2018-12-11T15:24:03.428Z,2.60
2018-12-11T15:26:31.902Z,3.13
2018-12-11T15:29:00.401Z,2.27
2018-12-11T15:31:29.133Z,3.23
2018-12-11T15:33:58.919Z,2.00
2018-12-11T15:36:28.054Z,2.60
2018-12-11T15:38:57.242Z,1.90
2018-12-11T15:41:25.823Z,2.00
2018-12-11T15:43:54.386Z,2.30
2018-12-11T15:46:23.897Z,2.40
2018-12-11T15:48:53.702Z,1.93
2018-12-11T15:51:22.214Z,2.27
2018-12-11T15:53:50.713Z,2.70
2018-12-11T15:56:19.517Z,2.52
2018-12-11T15:58:48.033Z,2.37
2018-12-11T16:01:16.647Z,2.33
2018-12-11T16:03:45.206Z,2.73
2018-12-11T16:06:13.776Z,2.30
2018-12-11T16:08:42.301Z,1.40
2018-12-11T16:11:10.893Z,2.43
2018-12-11T16:13:39.429Z,1.80
2018-12-11T16:16:08.260Z,2.70
2018-12-11T16:18:36.737Z,1.80
2018-12-11T16:21:05.316Z,2.40
2018-12-11T16:23:33.850Z,3.93
2018-12-11T16:26:02.989Z,3.77
2018-12-11T16:28:31.617Z,3.00
2018-12-11T16:31:00.132Z,2.70
2018-12-11T16:33:28.691Z,2.20
2018-12-11T16:35:57.904Z,3.00
2018-12-11T16:38:26.503Z,2.40
2018-12-11T16:40:55.196Z,2.30
2018-12-11T16:43:23.815Z,2.70
2018-12-11T16:45:52.370Z,2.03
2018-12-11T16:48:20.970Z,1.77
2018-12-11T16:50:50.113Z,2.50
2018-12-11T16:53:19.130Z,1.87
2018-12-11T16:55:47.762Z,2.60
2018-12-11T16:58:16.292Z,2.03
2018-12-11T17:00:44.908Z,3.30
2018-12-11T17:03:13.487Z,2.10
2018-12-11T17:05:41.987Z,2.60
2018-12-11T17:08:10.659Z,2.43
2018-12-11T17:10:39.972Z,2.37
2018-12-11T17:13:08.609Z,3.70
2018-12-11T17:15:38.250Z,2.53
2018-12-11T17:18:07.568Z,2.90
2018-12-11T17:20:36.460Z,2.83
2018-12-11T17:23:04.974Z,2.73
2018-12-11T17:25:33.499Z,2.50
2018-12-11T17:28:02.115Z,1.80
2018-12-11T17:30:30.682Z,2.20
2018-12-11T17:32:59.302Z,1.97
2018-12-11T17:35:27.843Z,1.87
2018-12-11T17:37:57.708Z,2.97
2018-12-11T17:40:26.247Z,2.60
2018-12-11T17:42:54.835Z,2.40
2018-12-11T17:45:23.482Z,1.70
2018-12-11T17:47:52.654Z,2.03
2018-12-11T17:50:21.277Z,1.73
2018-12-11T17:52:50.600Z,1.83
2018-12-11T17:55:20.021Z,2.43
2018-12-11T17:57:48.661Z,2.00
2018-12-11T18:00:17.267Z,3.57
2018-12-11T18:02:47.087Z,7.20
2018-12-11T18:05:16.513Z,2.90
2018-12-11T18:07:45.227Z,3.87
2018-12-11T18:10:14.497Z,5.10
2018-12-11T18:12:43.014Z,4.83
2018-12-11T18:15:12.555Z,2.60
2018-12-11T18:17:41.176Z,4.67
2018-12-11T18:20:10.277Z,5.00
2018-12-11T18:22:39.194Z,2.87
2018-12-11T18:25:08.516Z,3.12
2018-12-11T18:27:37.234Z,2.70
2018-12-11T18:30:07.547Z,7.17
2018-12-11T18:32:37.132Z,5.23
2018-12-11T18:35:07.751Z,11.90
2018-12-11T18:37:37.413Z,18.20
2018-12-11T18:40:08.415Z,7.27
2018-12-11T18:42:37.258Z,4.00
2018-12-11T18:45:07.023Z,2.47
2018-12-11T18:47:36.000Z,3.30
2018-12-11T18:50:05.264Z,3.30
2018-12-11T18:52:34.506Z,5.37
2018-12-11T18:55:03.217Z,4.70
2018-12-11T18:57:31.853Z,4.70
2018-12-11T19:00:00.498Z,5.17
2018-12-11T19:02:29.723Z,4.50
2018-12-11T19:04:58.908Z,3.73
2018-12-11T19:07:27.422Z,4.67
2018-12-11T19:09:56.335Z,5.20
2018-12-11T19:12:25.059Z,5.27
2018-12-11T19:14:53.789Z,4.83
2018-12-11T19:17:23.437Z,4.67
2018-12-11T19:19:52.357Z,5.00
2018-12-11T19:22:21.883Z,4.70
2018-12-11T19:24:54.050Z,5.03
2018-12-11T19:27:22.884Z,5.13
2018-12-11T19:29:51.416Z,4.60
2018-12-11T19:32:20.701Z,5.40
2018-12-11T19:34:49.316Z,5.37
2018-12-11T19:37:17.977Z,4.90
2018-12-11T19:39:46.510Z,4.90
2018-12-11T19:42:15.557Z,5.23
2018-12-11T19:44:44.174Z,4.03
2018-12-11T19:47:12.829Z,3.80
2018-12-11T19:49:42.182Z,4.20
2018-12-11T19:52:10.705Z,3.60
2018-12-11T19:54:39.662Z,3.77
2018-12-11T19:57:08.287Z,4.27
2018-12-11T19:59:36.796Z,3.50
2018-12-11T20:02:06.254Z,3.50
2018-12-11T20:04:35.024Z,4.20
2018-12-11T20:07:04.557Z,4.13
2018-12-11T20:09:33.029Z,3.83
2018-12-11T20:12:02.177Z,3.50
2018-12-11T20:14:31.389Z,3.87
2018-12-11T20:16:59.958Z,4.67
2018-12-11T20:19:29.343Z,3.70
2018-12-11T20:21:57.964Z,4.07
2018-12-11T20:24:27.340Z,4.30
2018-12-11T20:26:55.903Z,5.90
2018-12-11T20:29:24.895Z,3.90
2018-12-11T20:31:53.494Z,3.50
2018-12-11T20:34:22.685Z,3.77
2018-12-11T20:36:51.436Z,3.23
2018-12-11T20:39:20.056Z,3.80
2018-12-11T20:41:48.585Z,4.10
2018-12-11T20:44:17.341Z,3.40
2018-12-11T20:46:45.871Z,2.80
2018-12-11T20:49:14.866Z,4.07
2018-12-11T20:51:43.394Z,3.10
2018-12-11T20:54:12.037Z,3.27
2018-12-11T20:56:41.593Z,2.70
2018-12-11T20:59:10.160Z,3.73
2018-12-11T21:01:38.867Z,3.67
2018-12-11T21:04:07.385Z,4.80
2018-12-11T21:06:35.950Z,12.30
2018-12-11T21:09:07.872Z,14.30
2018-12-11T21:11:36.403Z,12.20
2018-12-11T21:14:04.889Z,8.57
2018-12-11T21:16:33.496Z,6.87
2018-12-11T21:19:02.386Z,5.57
2018-12-11T21:21:31.171Z,4.30
2018-12-11T21:23:59.951Z,4.73
2018-12-11T21:26:28.511Z,4.00
2018-12-11T21:28:57.827Z,3.73
2018-12-11T21:31:26.341Z,4.10
2018-12-11T21:33:54.936Z,7.60
2018-12-11T21:36:23.451Z,4.30
2018-12-11T21:38:51.952Z,5.07
2018-12-11T21:41:20.460Z,5.10
2018-12-11T21:43:49.792Z,4.70
2018-12-11T21:46:20.236Z,4.13
2018-12-11T21:48:48.692Z,5.00
2018-12-11T21:51:17.205Z,5.17
2018-12-11T21:53:45.732Z,5.03
2018-12-11T21:56:15.066Z,5.13
2018-12-11T21:58:43.683Z,5.30
2018-12-11T22:01:12.175Z,4.90
2018-12-11T22:03:40.944Z,5.30
2018-12-11T22:06:09.895Z,5.20
2018-12-11T22:08:38.404Z,5.87
2018-12-11T22:11:06.903Z,4.97
2018-12-11T22:13:35.392Z,6.43
2018-12-11T22:16:04.154Z,5.70
2018-12-11T22:18:32.795Z,6.47
2018-12-11T22:21:01.927Z,6.80
2018-12-11T22:23:30.473Z,6.20
2018-12-11T22:25:59.045Z,6.97
2018-12-11T22:28:28.320Z,6.47
2018-12-11T22:30:56.851Z,5.97
2018-12-11T22:33:25.388Z,6.17
2018-12-11T22:35:54.045Z,5.60
2018-12-11T22:38:22.544Z,6.23
2018-12-11T22:40:51.206Z,6.43
2018-12-11T22:43:19.720Z,4.73
2018-12-11T22:45:48.224Z,5.33
2018-12-11T22:48:16.850Z,7.10
2018-12-11T22:50:45.364Z,9.13
2018-12-11T22:53:13.827Z,6.47
2018-12-11T22:55:42.564Z,6.50
2018-12-11T22:58:11.054Z,6.17
2018-12-11T23:00:40.366Z,7.17
2018-12-11T23:03:08.870Z,6.57
2018-12-11T23:05:37.381Z,6.53
2018-12-11T23:08:06.582Z,6.50
2018-12-11T23:10:35.301Z,5.83
2018-12-11T23:13:03.798Z,6.10
2018-12-11T23:15:32.402Z,7.80
2018-12-11T23:18:00.937Z,6.70
2018-12-11T23:20:30.358Z,7.70
2018-12-11T23:22:58.828Z,5.60
2018-12-11T23:25:28.294Z,6.07
2018-12-11T23:27:57.257Z,6.07
2018-12-11T23:30:25.755Z,5.60
2018-12-11T23:32:54.307Z,5.10
2018-12-11T23:35:22.975Z,5.90
2018-12-11T23:37:51.440Z,5.40
2018-12-11T23:40:20.490Z,5.50
2018-12-11T23:42:48.992Z,5.70
2018-12-11T23:45:18.146Z,6.13
2018-12-11T23:47:46.685Z,6.50
2018-12-11T23:50:15.180Z,7.10
2018-12-11T23:52:44.992Z,6.33
2018-12-11T23:55:13.493Z,6.00
2018-12-11T23:57:42.006Z,5.50
